Time;durP1;ratioP1;P1;durP2;ratioP2;P2;SDS_P1;SDS_P2;PMS_P1;PMS_P2;Temp;Humidity;BMP_temperature;BMP_pressure;BME280_temperature;BME280_humidity;BME280_pressure;Samples;Min_cycle;Max_cycle;Signal;HPM_P1;HPM_P2
2023/03/22 00:01:23;;;;;;;4.43;2.90;;;;;;;;;;8312089;28;20118;-64
2023/03/22 00:05:23;;;;;;;4.20;2.80;;;;;;;;;;8311526;28;20519;-64
2023/03/22 00:09:23;;;;;;;4.57;2.67;;;;;;;;;;8313997;28;20064;-64
2023/03/22 00:13:24;;;;;;;3.55;2.85;;;;;;;;;;8312294;28;20108;-64
2023/03/22 00:17:24;;;;;;;5.65;3.00;;;;;;;;;;8310649;28;20110;-64
2023/03/22 00:21:25;;;;;;;3.85;2.95;;;;;;;;;;8309215;28;20066;-64
2023/03/22 00:25:25;;;;;;;5.18;2.97;;;;;;;;;;8312227;28;20079;-64
2023/03/22 00:29:25;;;;;;;4.40;2.80;;;;;;;;;;8312073;28;20034;-64
2023/03/22 00:33:29;;;;;;;6.97;3.20;;;;;;;;;;8311373;28;20045;-65
2023/03/22 00:37:37;;;;;;;4.40;2.90;;;;;;;;;;8309264;28;20144;-64
2023/03/22 00:41:37;;;;;;;7.75;3.15;;;;;;;;;;8311124;28;20037;-64
2023/03/22 00:45:39;;;;;;;5.93;3.10;;;;;;;;;;8312563;28;20036;-64
2023/03/22 00:49:40;;;;;;;7.05;3.10;;;;;;;;;;8311909;28;20052;-64
2023/03/22 00:53:40;;;;;;;5.50;3.17;;;;;;;;;;8309635;28;20028;-64
2023/03/22 00:57:40;;;;;;;4.55;2.70;;;;;;;;;;8309305;28;20029;-64
2023/03/22 01:01:41;;;;;;;5.05;3.10;;;;;;;;;;8309421;28;20055;-64
2023/03/22 01:05:43;;;;;;;5.53;3.20;;;;;;;;;;8310162;28;20033;-64
2023/03/22 01:09:44;;;;;;;8.07;2.83;;;;;;;;;;8312485;28;20017;-64
2023/03/22 01:13:44;;;;;;;4.07;2.90;;;;;;;;;;8310801;28;20032;-65
2023/03/22 01:17:44;;;;;;;5.00;3.05;;;;;;;;;;8310960;28;20107;-64
2023/03/22 01:21:44;;;;;;;4.40;2.70;;;;;;;;;;8313239;28;20021;-64
2023/03/22 01:25:45;;;;;;;4.83;2.93;;;;;;;;;;8315913;28;20020;-64
2023/03/22 01:29:45;;;;;;;4.30;2.63;;;;;;;;;;8311180;28;20474;-64
2023/03/22 01:33:45;;;;;;;4.88;2.65;;;;;;;;;;8311754;28;20060;-64
2023/03/22 01:37:46;;;;;;;4.57;3.00;;;;;;;;;;8314310;28;20101;-64
2023/03/22 01:41:46;;;;;;;3.97;2.72;;;;;;;;;;8314936;28;20064;-64
2023/03/22 01:45:47;;;;;;;4.28;3.05;;;;;;;;;;8313747;28;20029;-64
2023/03/22 01:49:47;;;;;;;3.88;3.00;;;;;;;;;;8312645;28;20076;-64
2023/03/22 01:53:49;;;;;;;6.47;2.63;;;;;;;;;;8312410;28;20744;-64
2023/03/22 01:57:50;;;;;;;4.88;2.83;;;;;;;;;;8314669;28;20017;-64
2023/03/22 02:01:50;;;;;;;5.63;2.97;;;;;;;;;;8313966;28;20981;-64
2023/03/22 02:05:51;;;;;;;5.57;3.43;;;;;;;;;;8315354;28;20029;-64
2023/03/22 02:09:54;;;;;;;4.22;2.67;;;;;;;;;;8313534;28;20111;-64
2023/03/22 02:14:13;;;;;;;4.07;2.80;;;;;;;;;;8298960;28;20025;-64
2023/03/22 02:18:35;;;;;;;5.40;2.90;;;;;;;;;;8315093;28;20266;-65
2023/03/22 02:22:41;;;;;;;5.10;3.15;;;;;;;;;;8315355;28;20367;-64
2023/03/22 02:26:49;;;;;;;4.90;3.17;;;;;;;;;;8316780;28;20599;-64
2023/03/22 02:30:49;;;;;;;4.43;3.08;;;;;;;;;;8312539;28;20061;-64
2023/03/22 02:34:55;;;;;;;4.50;3.20;;;;;;;;;;8315919;28;20026;-64
2023/03/22 02:39:10;;;;;;;5.38;3.22;;;;;;;;;;8315947;28;20044;-64
2023/03/22 02:43:17;;;;;;;5.18;3.00;;;;;;;;;;8316000;28;20045;-64
2023/03/22 02:47:22;;;;;;;3.05;2.65;;;;;;;;;;8312297;28;20033;-64
2023/03/22 02:51:25;;;;;;;5.47;3.30;;;;;;;;;;8316433;28;20053;-64
2023/03/22 02:55:29;;;;;;;6.18;2.80;;;;;;;;;;8313610;28;20116;-64
2023/03/22 02:59:31;;;;;;;8.27;3.65;;;;;;;;;;8314141;28;20033;-64
2023/03/22 03:03:32;;;;;;;5.43;3.30;;;;;;;;;;8311069;28;20025;-64
2023/03/22 03:07:33;;;;;;;4.32;3.08;;;;;;;;;;8314759;28;20076;-64
2023/03/22 03:11:33;;;;;;;5.47;3.20;;;;;;;;;;8314461;28;20095;-64
2023/03/22 03:15:34;;;;;;;4.68;2.90;;;;;;;;;;8313996;28;20033;-64
2023/03/22 03:19:55;;;;;;;3.67;3.05;;;;;;;;;;8311974;28;20033;-64
2023/03/22 03:24:10;;;;;;;3.42;2.80;;;;;;;;;;8296894;28;20030;-64
2023/03/22 03:28:11;;;;;;;6.80;2.85;;;;;;;;;;8312626;28;20112;-64
2023/03/22 03:32:11;;;;;;;8.75;3.10;;;;;;;;;;8311249;28;20195;-64
2023/03/22 03:36:13;;;;;;;3.65;2.90;;;;;;;;;;8312591;28;20829;-64
2023/03/22 03:40:21;;;;;;;5.85;3.10;;;;;;;;;;8310670;28;20026;-64
2023/03/22 03:44:22;;;;;;;4.70;3.00;;;;;;;;;;8312226;28;20033;-64
2023/03/22 03:48:26;;;;;;;3.80;3.15;;;;;;;;;;8312149;28;20072;-64
2023/03/22 03:52:28;;;;;;;;;;;;;;;;;;8315611;28;20374;-64
2023/03/22 03:56:28;;;;;;;5.65;3.20;;;;;;;;;;8314314;28;19948;-64
2023/03/22 04:00:28;;;;;;;6.15;3.50;;;;;;;;;;8313536;28;20514;-64
2023/03/22 04:04:28;;;;;;;4.68;3.38;;;;;;;;;;8312896;28;20460;-64
2023/03/22 04:08:28;;;;;;;7.20;3.30;;;;;;;;;;8312489;28;20386;-64
2023/03/22 04:12:29;;;;;;;4.35;3.20;;;;;;;;;;8312957;28;20082;-64
2023/03/22 04:16:30;;;;;;;4.90;2.88;;;;;;;;;;8311516;28;20036;-64
2023/03/22 04:20:30;;;;;;;6.30;3.35;;;;;;;;;;8308689;28;20020;-64
2023/03/22 04:24:30;;;;;;;6.83;3.30;;;;;;;;;;8311537;28;20025;-64
2023/03/22 04:28:32;;;;;;;4.75;4.03;;;;;;;;;;8311432;28;20272;-64
2023/03/22 04:32:32;;;;;;;7.53;3.50;;;;;;;;;;8312816;28;20072;-64
2023/03/22 04:36:38;;;;;;;4.45;3.40;;;;;;;;;;8310340;28;20028;-64
2023/03/22 04:40:45;;;;;;;4.47;3.50;;;;;;;;;;8311018;28;20030;-64
2023/03/22 04:44:45;;;;;;;6.03;3.67;;;;;;;;;;8311885;28;20103;-64
2023/03/22 04:48:45;;;;;;;6.65;3.78;;;;;;;;;;8311758;28;20032;-63
2023/03/22 04:52:46;;;;;;;8.00;3.97;;;;;;;;;;8309839;28;20033;-64
2023/03/22 04:56:47;;;;;;;6.25;3.60;;;;;;;;;;8309154;28;20029;-64
2023/03/22 05:00:47;;;;;;;5.43;3.50;;;;;;;;;;8310191;28;20041;-64
2023/03/22 05:04:47;;;;;;;5.95;3.45;;;;;;;;;;8310211;28;20033;-64
2023/03/22 05:08:47;;;;;;;4.43;3.30;;;;;;;;;;8311448;28;20041;-64
2023/03/22 05:12:48;;;;;;;4.32;3.20;;;;;;;;;;8308847;28;20152;-64
2023/03/22 05:16:48;;;;;;;6.60;3.10;;;;;;;;;;8311351;28;20120;-64
2023/03/22 05:20:48;;;;;;;5.03;2.97;;;;;;;;;;8310004;28;20060;-64
2023/03/22 05:24:48;;;;;;;4.20;3.28;;;;;;;;;;8309250;28;20654;-64
2023/03/22 05:28:49;;;;;;;4.72;3.33;;;;;;;;;;8308720;28;20130;-64
2023/03/22 05:32:50;;;;;;;4.88;3.05;;;;;;;;;;8309721;28;20029;-64
2023/03/22 05:36:50;;;;;;;4.28;2.80;;;;;;;;;;8310851;28;20151;-64
2023/03/22 05:40:50;;;;;;;3.77;2.70;;;;;;;;;;8308924;28;20021;-64
2023/03/22 05:44:50;;;;;;;4.63;3.03;;;;;;;;;;8310894;28;20263;-64
2023/03/22 05:48:51;;;;;;;5.18;3.00;;;;;;;;;;8307413;28;20044;-64
2023/03/22 05:52:51;;;;;;;5.72;3.35;;;;;;;;;;8305164;28;20144;-64
2023/03/22 05:56:51;;;;;;;4.68;3.15;;;;;;;;;;8309551;28;20036;-64
2023/03/22 06:00:51;;;;;;;5.45;3.45;;;;;;;;;;8308765;28;20924;-64
2023/03/22 06:04:52;;;;;;;4.75;3.53;;;;;;;;;;8310820;28;20033;-64
2023/03/22 06:08:52;;;;;;;6.10;3.40;;;;;;;;;;8315378;28;20382;-64
2023/03/22 06:12:53;;;;;;;6.03;3.60;;;;;;;;;;8313467;28;20029;-65
2023/03/22 06:16:53;;;;;;;5.80;3.45;;;;;;;;;;8317060;28;20040;-64
2023/03/22 06:20:53;;;;;;;7.68;3.47;;;;;;;;;;8315495;28;20105;-65
2023/03/22 06:24:53;;;;;;;4.82;3.22;;;;;;;;;;8313107;28;20491;-64
2023/03/22 06:28:53;;;;;;;3.95;2.72;;;;;;;;;;8315112;28;20028;-64
2023/03/22 06:32:54;;;;;;;2.65;2.38;;;;;;;;;;8315371;28;20649;-65
2023/03/22 06:36:54;;;;;;;6.95;2.60;;;;;;;;;;8314947;28;20017;-64
2023/03/22 06:40:54;;;;;;;3.80;2.60;;;;;;;;;;8313502;28;20057;-64
2023/03/22 06:44:54;;;;;;;2.33;1.75;;;;;;;;;;8314522;28;20032;-65
2023/03/22 06:48:55;;;;;;;4.43;2.35;;;;;;;;;;8312840;28;20487;-64
2023/03/22 06:52:55;;;;;;;2.15;1.92;;;;;;;;;;8314523;28;20713;-64
2023/03/22 06:56:55;;;;;;;5.63;2.40;;;;;;;;;;8313495;28;20708;-64
2023/03/22 07:00:56;;;;;;;6.00;2.30;;;;;;;;;;8313033;28;20284;-64
2023/03/22 07:04:56;;;;;;;2.97;1.80;;;;;;;;;;8311887;28;20047;-64
2023/03/22 07:08:56;;;;;;;3.58;1.73;;;;;;;;;;8315572;28;20674;-64
2023/03/22 07:12:56;;;;;;;2.77;2.00;;;;;;;;;;8312993;28;20025;-64
2023/03/22 07:16:57;;;;;;;5.10;2.35;;;;;;;;;;8314827;28;20037;-64
2023/03/22 07:20:57;;;;;;;4.13;1.90;;;;;;;;;;8312322;28;20061;-64
2023/03/22 07:24:57;;;;;;;5.47;2.35;;;;;;;;;;8314252;28;20025;-64
2023/03/22 07:28:57;;;;;;;7.68;1.95;;;;;;;;;;8314830;28;20694;-64
2023/03/22 07:32:57;;;;;;;3.60;1.77;;;;;;;;;;8311434;28;20041;-64
2023/03/22 07:36:57;;;;;;;4.07;2.00;;;;;;;;;;8314898;28;20027;-64
2023/03/22 07:40:58;;;;;;;5.57;1.88;;;;;;;;;;8310900;28;20796;-64
2023/03/22 07:44:58;;;;;;;3.35;1.60;;;;;;;;;;8313423;28;20018;-64
2023/03/22 07:48:58;;;;;;;4.65;1.58;;;;;;;;;;8312338;28;20520;-64
2023/03/22 07:52:58;;;;;;;4.90;1.80;;;;;;;;;;8310768;28;20409;-64
2023/03/22 07:56:58;;;;;;;4.38;1.85;;;;;;;;;;8312680;28;20059;-64
2023/03/22 08:01:02;;;;;;;3.70;1.67;;;;;;;;;;8310316;28;20044;-64
2023/03/22 08:05:04;;;;;;;3.60;1.60;;;;;;;;;;8307984;28;20037;-64
2023/03/22 08:09:04;;;;;;;5.10;1.58;;;;;;;;;;8304292;28;20038;-64
2023/03/22 08:13:04;;;;;;;3.70;1.80;;;;;;;;;;8304412;28;20548;-65
2023/03/22 08:17:04;;;;;;;1.90;1.38;;;;;;;;;;8304202;28;20482;-64
2023/03/22 08:21:05;;;;;;;2.75;1.40;;;;;;;;;;8302288;28;20063;-64
2023/03/22 08:25:06;;;;;;;3.03;1.50;;;;;;;;;;8300206;28;20053;-64
2023/03/22 08:29:06;;;;;;;2.47;1.27;;;;;;;;;;8301045;28;20462;-64
2023/03/22 08:33:06;;;;;;;3.72;1.17;;;;;;;;;;8302357;28;20037;-64
2023/03/22 08:37:07;;;;;;;1.42;1.20;;;;;;;;;;8303494;28;20026;-64
2023/03/22 08:41:07;;;;;;;1.75;1.20;;;;;;;;;;8303182;28;20418;-64
2023/03/22 08:45:09;;;;;;;3.00;1.60;;;;;;;;;;8303633;28;20037;-64
2023/03/22 08:49:09;;;;;;;3.22;1.50;;;;;;;;;;8302175;28;20489;-64
2023/03/22 08:53:10;;;;;;;5.43;1.20;;;;;;;;;;8303147;28;20358;-64
2023/03/22 08:57:10;;;;;;;1.98;1.30;;;;;;;;;;8301729;28;20037;-64
2023/03/22 09:01:11;;;;;;;1.35;1.23;;;;;;;;;;8300888;28;20045;-64
2023/03/22 09:05:12;;;;;;;3.40;1.40;;;;;;;;;;8300755;28;20580;-64
2023/03/22 09:09:12;;;;;;;3.58;1.25;;;;;;;;;;8300550;28;20163;-64
2023/03/22 09:13:13;;;;;;;2.35;1.63;;;;;;;;;;8303357;28;20037;-64
2023/03/22 09:17:14;;;;;;;2.83;1.50;;;;;;;;;;8302889;28;20057;-64
2023/03/22 09:21:14;;;;;;;5.07;1.45;;;;;;;;;;8302607;28;20110;-64
2023/03/22 09:25:15;;;;;;;3.47;1.48;;;;;;;;;;8302909;28;20021;-65
2023/03/22 09:29:15;;;;;;;5.05;1.80;;;;;;;;;;8283784;28;20086;-64
2023/03/22 09:33:15;;;;;;;2.40;1.42;;;;;;;;;;8301679;28;20034;-64
2023/03/22 09:37:15;;;;;;;2.63;1.40;;;;;;;;;;8302299;28;20033;-64
2023/03/22 09:41:48;;;;;;;1.30;1.02;;;;;;;;;;8307415;28;20048;-64
2023/03/22 09:45:50;;;;;;;3.25;1.20;;;;;;;;;;8272178;28;20427;-64
2023/03/22 09:49:54;;;;;;;1.38;0.93;;;;;;;;;;8310518;28;20528;-64
2023/03/22 09:53:54;;;;;;;1.42;0.90;;;;;;;;;;8307024;28;20289;-64
2023/03/22 09:58:05;;;;;;;1.27;1.00;;;;;;;;;;8306284;28;20527;-64
2023/03/22 10:02:30;;;;;;;3.85;1.13;;;;;;;;;;8307002;28;20056;-64
2023/03/22 10:06:31;;;;;;;2.10;1.10;;;;;;;;;;8307825;28;20475;-64
2023/03/22 10:10:31;;;;;;;1.77;1.03;;;;;;;;;;8307558;28;20029;-64
2023/03/22 10:14:55;;;;;;;1.77;0.95;;;;;;;;;;8307018;28;20280;-64
2023/03/22 10:19:11;;;;;;;2.97;1.20;;;;;;;;;;8306150;28;20029;-64
2023/03/22 10:23:19;;;;;;;1.77;1.10;;;;;;;;;;8309299;28;20029;-64
2023/03/22 10:27:20;;;;;;;1.63;1.00;;;;;;;;;;8306517;28;20034;-65
2023/03/22 10:31:20;;;;;;;1.73;1.10;;;;;;;;;;8307655;28;20064;-65
2023/03/22 10:35:20;;;;;;;0.95;0.88;;;;;;;;;;8306996;28;20021;-64
2023/03/22 10:39:27;;;;;;;1.17;0.80;;;;;;;;;;8306116;28;20041;-64
2023/03/22 10:43:32;;;;;;;1.60;1.00;;;;;;;;;;8306257;28;20473;-64
2023/03/22 10:47:32;;;;;;;2.50;0.98;;;;;;;;;;8305724;28;20037;-64
2023/03/22 10:51:39;;;;;;;2.40;1.10;;;;;;;;;;8305168;28;20086;-64
2023/03/22 10:55:40;;;;;;;1.73;1.10;;;;;;;;;;8304481;28;20043;-64
2023/03/22 10:59:46;;;;;;;1.65;1.10;;;;;;;;;;8306003;28;20032;-64
2023/03/22 11:03:50;;;;;;;0.90;0.80;;;;;;;;;;8306019;28;20029;-64
2023/03/22 11:07:51;;;;;;;0.80;0.80;;;;;;;;;;8305633;28;20028;-64
2023/03/22 11:11:56;;;;;;;3.20;1.10;;;;;;;;;;8302072;28;20021;-64
2023/03/22 11:15:58;;;;;;;1.65;0.95;;;;;;;;;;8305996;28;20109;-64
2023/03/22 11:20:06;;;;;;;3.00;1.50;;;;;;;;;;8304997;28;20033;-64
2023/03/22 11:24:06;;;;;;;1.05;0.90;;;;;;;;;;8304772;28;20367;-64
2023/03/22 11:28:14;;;;;;;3.38;1.02;;;;;;;;;;8303966;28;20017;-64
2023/03/22 11:32:37;;;;;;;1.23;1.00;;;;;;;;;;8304338;28;20410;-65
2023/03/22 11:36:42;;;;;;;1.23;0.93;;;;;;;;;;8295556;28;20033;-64
2023/03/22 11:40:48;;;;;;;4.18;1.25;;;;;;;;;;8304156;28;20128;-64
2023/03/22 11:44:48;;;;;;;2.40;1.00;;;;;;;;;;8304796;28;20596;-64
2023/03/22 11:48:55;;;;;;;1.48;1.00;;;;;;;;;;8303978;28;20040;-64
2023/03/22 11:52:56;;;;;;;1.75;0.88;;;;;;;;;;8290139;28;20473;-64
2023/03/22 11:56:57;;;;;;;0.90;0.90;;;;;;;;;;8306729;28;20030;-64
2023/03/22 12:00:59;;;;;;;1.10;0.90;;;;;;;;;;8303119;28;20040;-64
2023/03/22 12:05:04;;;;;;;1.52;0.88;;;;;;;;;;8303479;28;20029;-64
2023/03/22 12:09:05;;;;;;;1.08;0.90;;;;;;;;;;8305112;28;20044;-65
2023/03/22 12:13:29;;;;;;;3.45;0.90;;;;;;;;;;8305632;28;20048;-64
2023/03/22 12:17:49;;;;;;;2.00;0.80;;;;;;;;;;8287609;28;20554;-64
2023/03/22 12:21:50;;;;;;;2.15;1.05;;;;;;;;;;8299863;28;20068;-64
2023/03/22 12:25:54;;;;;;;1.02;0.90;;;;;;;;;;8302122;28;20083;-64
2023/03/22 12:30:14;;;;;;;1.30;0.82;;;;;;;;;;8301625;28;20733;-65
2023/03/22 12:34:16;;;;;;;4.97;1.00;;;;;;;;;;8302575;28;20132;-65
2023/03/22 12:38:19;;;;;;;1.58;1.13;;;;;;;;;;8300788;28;20026;-65
2023/03/22 12:42:22;;;;;;;2.00;1.20;;;;;;;;;;8303060;28;20034;-64
2023/03/22 12:46:28;;;;;;;1.15;1.02;;;;;;;;;;8299848;28;20179;-65
2023/03/22 12:50:28;;;;;;;0.93;0.90;;;;;;;;;;8288803;28;21717;-65
2023/03/22 12:54:28;;;;;;;1.60;0.95;;;;;;;;;;8304000;28;20045;-65
2023/03/22 12:58:29;;;;;;;1.88;1.23;;;;;;;;;;8308991;28;20627;-64
2023/03/22 13:02:33;;;;;;;1.30;1.20;;;;;;;;;;8300071;28;20045;-65
2023/03/22 13:06:46;;;;;;;1.70;1.20;;;;;;;;;;8295101;28;20021;-64
2023/03/22 13:10:48;;;;;;;1.07;0.93;;;;;;;;;;8302556;28;20021;-62
2023/03/22 13:14:48;;;;;;;1.55;1.00;;;;;;;;;;8306465;28;20017;-63
2023/03/22 13:18:48;;;;;;;1.27;1.15;;;;;;;;;;8306673;28;20079;-62
2023/03/22 13:22:48;;;;;;;4.22;1.33;;;;;;;;;;8306672;28;20029;-62
2023/03/22 13:26:51;;;;;;;1.45;1.10;;;;;;;;;;8305872;28;20436;-62
2023/03/22 13:30:52;;;;;;;1.17;1.00;;;;;;;;;;8305937;28;20035;-62
2023/03/22 13:34:52;;;;;;;1.20;1.10;;;;;;;;;;8306842;28;20063;-62
2023/03/22 13:38:54;;;;;;;1.53;1.13;;;;;;;;;;8308946;28;20289;-62
2023/03/22 13:43:08;;;;;;;1.65;1.10;;;;;;;;;;8308625;28;20036;-63
2023/03/22 13:47:27;;;;;;;1.30;1.20;;;;;;;;;;8308577;28;20037;-63
2023/03/22 13:51:30;;;;;;;1.33;1.20;;;;;;;;;;8308331;28;20068;-63
2023/03/22 13:55:34;;;;;;;1.20;1.10;;;;;;;;;;8308192;28;20621;-63
2023/03/22 13:59:53;;;;;;;1.08;0.98;;;;;;;;;;8308945;28;20017;-63
2023/03/22 14:03:56;;;;;;;1.88;1.00;;;;;;;;;;8311089;28;20133;-62
2023/03/22 14:07:58;;;;;;;1.20;1.00;;;;;;;;;;8313401;28;20033;-63
2023/03/22 14:12:18;;;;;;;1.63;1.10;;;;;;;;;;8314508;28;20017;-63
2023/03/22 14:16:27;;;;;;;1.95;1.30;;;;;;;;;;8302118;28;20309;-63
2023/03/22 14:20:30;;;;;;;1.77;1.20;;;;;;;;;;8308299;28;20029;-63
2023/03/22 14:24:35;;;;;;;3.65;1.00;;;;;;;;;;8310898;28;20078;-63
2023/03/22 14:28:36;;;;;;;1.63;1.08;;;;;;;;;;8312919;28;20021;-63
2023/03/22 14:32:43;;;;;;;1.77;1.02;;;;;;;;;;8316221;28;20929;-62
2023/03/22 14:36:44;;;;;;;1.25;1.10;;;;;;;;;;8310720;28;20093;-63
2023/03/22 14:40:45;;;;;;;1.05;0.93;;;;;;;;;;8308793;28;20059;-63
2023/03/22 14:44:46;;;;;;;1.48;1.02;;;;;;;;;;8315752;28;20044;-63
2023/03/22 14:48:54;;;;;;;2.83;1.20;;;;;;;;;;8308748;28;20053;-63
2023/03/22 14:52:54;;;;;;;1.58;1.00;;;;;;;;;;8297640;28;20049;-63
2023/03/22 14:56:58;;;;;;;1.25;1.10;;;;;;;;;;8313133;28;20052;-63
2023/03/22 15:01:02;;;;;;;2.13;0.90;;;;;;;;;;8305840;28;20520;-62
2023/03/22 15:05:11;;;;;;;1.70;1.10;;;;;;;;;;8313886;28;20749;-62
2023/03/22 15:09:13;;;;;;;1.85;0.98;;;;;;;;;;8310411;28;20029;-63
2023/03/22 15:13:14;;;;;;;1.23;0.90;;;;;;;;;;8304818;28;20363;-62
2023/03/22 15:17:15;;;;;;;0.85;0.85;;;;;;;;;;8307261;28;20045;-63
2023/03/22 15:21:15;;;;;;;1.27;0.82;;;;;;;;;;8307068;28;20028;-63
2023/03/22 15:25:16;;;;;;;0.82;0.82;;;;;;;;;;8306031;28;20029;-63
2023/03/22 15:29:18;;;;;;;0.98;0.98;;;;;;;;;;8305026;28;20032;-63
2023/03/22 15:33:20;;;;;;;1.05;0.90;;;;;;;;;;8301369;28;20041;-63
2023/03/22 15:37:31;;;;;;;1.58;1.00;;;;;;;;;;8310103;28;20028;-63
2023/03/22 15:41:43;;;;;;;1.08;0.95;;;;;;;;;;8309403;28;20025;-63
2023/03/22 15:46:03;;;;;;;1.42;0.90;;;;;;;;;;8305045;28;20569;-64
2023/03/22 15:50:06;;;;;;;1.10;0.90;;;;;;;;;;8304277;28;20071;-63
2023/03/22 15:54:11;;;;;;;1.30;0.80;;;;;;;;;;8305607;28;20057;-63
2023/03/22 15:58:28;;;;;;;1.80;0.80;;;;;;;;;;8303877;28;20022;-63
2023/03/22 16:02:30;;;;;;;1.10;1.00;;;;;;;;;;8304032;28;20801;-63
2023/03/22 16:06:30;;;;;;;0.88;0.88;;;;;;;;;;8304014;28;20025;-63
2023/03/22 16:10:32;;;;;;;1.73;1.02;;;;;;;;;;8304130;28;20118;-63
2023/03/22 16:14:32;;;;;;;2.20;1.40;;;;;;;;;;8304359;28;20519;-63
2023/03/22 16:18:33;;;;;;;1.10;1.00;;;;;;;;;;8303297;28;20470;-63
2023/03/22 16:22:33;;;;;;;1.38;0.80;;;;;;;;;;8301998;28;20155;-63
2023/03/22 16:26:33;;;;;;;1.85;0.82;;;;;;;;;;8303025;28;20075;-63
2023/03/22 16:30:33;;;;;;;2.17;0.90;;;;;;;;;;8303733;28;20029;-63
2023/03/22 16:34:35;;;;;;;2.28;0.80;;;;;;;;;;8304668;28;20056;-63
2023/03/22 16:38:35;;;;;;;3.13;1.38;;;;;;;;;;8301569;28;20031;-63
2023/03/22 16:42:35;;;;;;;2.80;1.23;;;;;;;;;;8303632;28;20029;-62
2023/03/22 16:46:35;;;;;;;2.58;0.95;;;;;;;;;;8304554;28;20037;-63
2023/03/22 16:50:38;;;;;;;3.30;0.80;;;;;;;;;;8300766;28;20027;-63
2023/03/22 16:54:38;;;;;;;5.07;0.80;;;;;;;;;;8300080;28;20155;-63
2023/03/22 16:58:38;;;;;;;1.05;0.80;;;;;;;;;;8303822;28;20027;-63
2023/03/22 17:02:38;;;;;;;3.25;0.80;;;;;;;;;;8299343;28;20497;-63
2023/03/22 17:06:39;;;;;;;1.30;0.70;;;;;;;;;;8308480;28;20037;-63
2023/03/22 17:10:39;;;;;;;1.20;0.80;;;;;;;;;;8304236;28;20017;-63
2023/03/22 17:14:39;;;;;;;2.13;0.90;;;;;;;;;;8303245;28;20249;-63
2023/03/22 17:18:39;;;;;;;0.82;0.80;;;;;;;;;;8302050;28;20040;-63
2023/03/22 17:22:39;;;;;;;0.70;0.70;;;;;;;;;;8301229;28;20120;-63
2023/03/22 17:26:40;;;;;;;1.20;1.10;;;;;;;;;;8304608;28;20037;-63
2023/03/22 17:30:40;;;;;;;1.33;0.80;;;;;;;;;;8309076;28;20694;-63
2023/03/22 17:34:40;;;;;;;0.85;0.82;;;;;;;;;;8301128;28;20034;-62
2023/03/22 17:38:40;;;;;;;1.40;0.70;;;;;;;;;;8303286;28;20091;-63
2023/03/22 17:42:41;;;;;;;2.65;0.82;;;;;;;;;;8302623;28;20065;-63
2023/03/22 17:46:42;;;;;;;4.22;1.05;;;;;;;;;;8300114;28;20033;-63
2023/03/22 17:50:42;;;;;;;2.63;0.90;;;;;;;;;;8293318;28;20441;-63
2023/03/22 17:54:42;;;;;;;2.33;0.90;;;;;;;;;;8301281;28;20512;-63
2023/03/22 17:58:43;;;;;;;1.23;0.88;;;;;;;;;;8300901;28;20021;-62
2023/03/22 18:02:43;;;;;;;1.17;0.85;;;;;;;;;;8298574;28;20128;-62
2023/03/22 18:06:44;;;;;;;1.58;0.70;;;;;;;;;;8309221;28;20028;-63
2023/03/22 18:10:44;;;;;;;1.25;0.70;;;;;;;;;;8308755;28;20412;-63
2023/03/22 18:14:44;;;;;;;1.03;0.60;;;;;;;;;;8306569;28;20476;-62
2023/03/22 18:18:45;;;;;;;0.88;0.88;;;;;;;;;;8305478;28;20294;-62
2023/03/22 18:22:46;;;;;;;0.85;0.70;;;;;;;;;;8307606;28;20025;-63
2023/03/22 18:26:46;;;;;;;2.90;0.80;;;;;;;;;;8307342;28;20022;-62
2023/03/22 18:30:49;;;;;;;2.08;0.75;;;;;;;;;;8307623;28;20037;-62
2023/03/22 18:34:49;;;;;;;1.05;0.95;;;;;;;;;;8306799;28;20021;-62
2023/03/22 18:38:50;;;;;;;3.58;0.90;;;;;;;;;;8306790;28;20041;-62
2023/03/22 18:42:50;;;;;;;0.80;0.80;;;;;;;;;;8306609;28;20498;-63
2023/03/22 18:46:50;;;;;;;3.25;0.80;;;;;;;;;;8306597;28;20358;-62
2023/03/22 18:50:53;;;;;;;2.15;0.80;;;;;;;;;;8305889;28;20083;-62
2023/03/22 18:54:54;;;;;;;2.00;0.90;;;;;;;;;;8306580;28;20354;-62
2023/03/22 18:58:54;;;;;;;3.80;0.90;;;;;;;;;;8306277;28;20152;-62
2023/03/22 19:02:55;;;;;;;2.45;0.80;;;;;;;;;;8306232;28;20394;-62
2023/03/22 19:06:59;;;;;;;2.13;0.90;;;;;;;;;;8307471;28;20029;-63
2023/03/22 19:10:59;;;;;;;1.70;1.08;;;;;;;;;;8314274;28;20037;-62
2023/03/22 19:14:59;;;;;;;1.05;0.95;;;;;;;;;;8306688;28;20104;-62
2023/03/22 19:18:59;;;;;;;2.00;1.17;;;;;;;;;;8304849;28;20037;-62
2023/03/22 19:22:59;;;;;;;4.88;1.05;;;;;;;;;;8303828;28;20377;-63
2023/03/22 19:27:00;;;;;;;1.13;1.00;;;;;;;;;;8304650;28;20709;-62
2023/03/22 19:31:00;;;;;;;1.98;0.90;;;;;;;;;;8304248;28;20139;-62
2023/03/22 19:35:01;;;;;;;3.05;1.20;;;;;;;;;;8305368;28;20071;-62
2023/03/22 19:39:02;;;;;;;2.47;1.20;;;;;;;;;;8304769;28;20025;-62
2023/03/22 19:43:02;;;;;;;1.63;1.50;;;;;;;;;;8304810;28;20037;-62
2023/03/22 19:47:02;;;;;;;2.47;1.75;;;;;;;;;;8305623;28;20497;-62
2023/03/22 19:51:03;;;;;;;1.83;1.17;;;;;;;;;;8305494;28;20021;-63
2023/03/22 19:55:03;;;;;;;1.05;1.00;;;;;;;;;;8307185;28;20025;-62
2023/03/22 19:59:04;;;;;;;3.35;1.10;;;;;;;;;;8303963;28;20033;-63
2023/03/22 20:03:05;;;;;;;1.60;0.75;;;;;;;;;;8305274;28;20274;-63
2023/03/22 20:07:06;;;;;;;3.03;1.05;;;;;;;;;;8304969;28;20035;-63
2023/03/22 20:11:07;;;;;;;1.20;0.98;;;;;;;;;;8304619;28;20445;-62
2023/03/22 20:15:07;;;;;;;2.15;1.00;;;;;;;;;;8310427;28;20021;-62
2023/03/22 20:19:08;;;;;;;1.02;0.85;;;;;;;;;;8309884;28;20022;-62
2023/03/22 20:23:08;;;;;;;1.40;1.10;;;;;;;;;;8304008;28;20026;-63
2023/03/22 20:27:08;;;;;;;2.35;0.95;;;;;;;;;;8303491;28;20029;-62
2023/03/22 20:31:10;;;;;;;4.03;1.33;;;;;;;;;;8311117;28;20033;-63
2023/03/22 20:35:11;;;;;;;1.73;0.95;;;;;;;;;;8312655;28;20838;-62
2023/03/22 20:39:11;;;;;;;2.05;1.00;;;;;;;;;;8311479;28;21096;-62
2023/03/22 20:43:11;;;;;;;1.90;0.90;;;;;;;;;;8302801;28;20032;-62
2023/03/22 20:47:14;;;;;;;0.80;0.80;;;;;;;;;;8303535;28;20489;-62
2023/03/22 20:51:14;;;;;;;2.97;1.00;;;;;;;;;;8302574;28;20088;-62
2023/03/22 20:55:17;;;;;;;7.38;1.38;;;;;;;;;;8304331;28;20512;-63
2023/03/22 20:59:19;;;;;;;1.45;1.10;;;;;;;;;;8304790;28;20520;-62
2023/03/22 21:03:19;;;;;;;2.90;1.00;;;;;;;;;;8302869;28;20292;-62
2023/03/22 21:07:19;;;;;;;2.40;0.95;;;;;;;;;;8304082;28;20056;-62
2023/03/22 21:11:20;;;;;;;3.92;0.95;;;;;;;;;;8303325;28;20053;-62
2023/03/22 21:15:20;;;;;;;1.40;0.90;;;;;;;;;;8302524;28;20686;-63
2023/03/22 21:19:20;;;;;;;3.85;1.10;;;;;;;;;;8301151;28;20024;-62
2023/03/22 21:23:20;;;;;;;0.80;0.80;;;;;;;;;;8303076;28;20536;-62
2023/03/22 21:27:24;;;;;;;2.90;0.90;;;;;;;;;;8302476;28;20044;-63
2023/03/22 21:31:24;;;;;;;;;;;;;;;;;;8304714;28;20303;-62
2023/03/22 21:35:25;;;;;;;1.50;0.90;;;;;;;;;;8313510;28;19909;-63
2023/03/22 21:39:27;;;;;;;5.43;1.00;;;;;;;;;;8309271;28;20029;-62
2023/03/22 21:43:30;;;;;;;2.28;1.05;;;;;;;;;;8300870;28;20520;-62
2023/03/22 21:47:32;;;;;;;1.42;1.00;;;;;;;;;;8307533;28;20494;-62
2023/03/22 21:51:33;;;;;;;1.48;1.02;;;;;;;;;;8305168;28;20032;-63
2023/03/22 21:55:33;;;;;;;1.05;0.90;;;;;;;;;;8311438;28;20025;-63
2023/03/22 21:59:33;;;;;;;2.08;1.00;;;;;;;;;;8313292;28;20061;-63
2023/03/22 22:03:34;;;;;;;1.65;0.93;;;;;;;;;;8311311;28;20072;-63
2023/03/22 22:07:34;;;;;;;2.67;0.98;;;;;;;;;;8312197;28;20029;-63
2023/03/22 22:11:36;;;;;;;1.52;1.00;;;;;;;;;;8307987;28;20017;-62
2023/03/22 22:15:36;;;;;;;2.15;0.82;;;;;;;;;;8311489;28;20061;-63
2023/03/22 22:19:36;;;;;;;2.05;1.00;;;;;;;;;;8311660;28;20563;-63
2023/03/22 22:23:38;;;;;;;1.58;0.90;;;;;;;;;;8314124;28;20107;-63
2023/03/22 22:27:38;;;;;;;1.48;0.85;;;;;;;;;;8312896;28;20063;-62
2023/03/22 22:31:39;;;;;;;2.05;0.93;;;;;;;;;;8312808;28;20087;-63
2023/03/22 22:35:39;;;;;;;4.75;0.77;;;;;;;;;;8312250;28;20391;-63
2023/03/22 22:39:39;;;;;;;2.05;0.90;;;;;;;;;;8312212;28;20092;-63
2023/03/22 22:43:40;;;;;;;1.15;0.73;;;;;;;;;;8316560;28;20014;-62
2023/03/22 22:47:40;;;;;;;1.42;0.90;;;;;;;;;;8312212;28;20042;-63
2023/03/22 22:51:40;;;;;;;1.30;0.65;;;;;;;;;;8313813;28;20058;-62
2023/03/22 22:55:41;;;;;;;1.50;0.90;;;;;;;;;;8313099;28;20512;-63
2023/03/22 22:59:41;;;;;;;0.60;0.60;;;;;;;;;;8299593;28;20028;-63
2023/03/22 23:03:41;;;;;;;1.92;0.90;;;;;;;;;;8315817;28;20124;-63
2023/03/22 23:07:42;;;;;;;1.88;0.75;;;;;;;;;;8315985;28;20024;-62
2023/03/22 23:11:43;;;;;;;0.80;0.73;;;;;;;;;;8315027;28;20025;-62
2023/03/22 23:15:43;;;;;;;1.02;0.73;;;;;;;;;;8313654;28;20038;-63
2023/03/22 23:19:51;;;;;;;0.88;0.75;;;;;;;;;;8316067;28;20401;-63
2023/03/22 23:23:51;;;;;;;0.60;0.60;;;;;;;;;;8311464;28;20045;-62
2023/03/22 23:27:56;;;;;;;1.70;0.77;;;;;;;;;;8314656;28;20143;-62
2023/03/22 23:31:56;;;;;;;0.73;0.63;;;;;;;;;;8313631;28;20037;-63
2023/03/22 23:36:01;;;;;;;1.23;0.70;;;;;;;;;;8316320;28;20032;-63
2023/03/22 23:40:09;;;;;;;1.73;0.75;;;;;;;;;;8315340;28;20032;-63
2023/03/22 23:44:09;;;;;;;0.82;0.70;;;;;;;;;;8313821;28;20538;-63
2023/03/22 23:48:10;;;;;;;0.60;0.60;;;;;;;;;;8311087;28;20715;-64
2023/03/22 23:52:10;;;;;;;0.77;0.77;;;;;;;;;;8313999;28;20064;-63
2023/03/22 23:56:12;;;;;;;1.53;0.70;;;;;;;;;;8313271;28;20918;-63
